createdAt,value
2018-03-30T00:02:05.569Z,6.80
2018-03-30T00:04:33.188Z,6.80
2018-03-30T00:07:09.636Z,6.80
2018-03-30T00:09:49.133Z,6.80
2018-03-30T00:12:17.500Z,6.80
2018-03-30T00:14:45.860Z,6.70
2018-03-30T00:17:13.477Z,6.70
2018-03-30T00:19:41.075Z,6.70
2018-03-30T00:22:08.699Z,6.70
2018-03-30T00:24:36.297Z,6.70
2018-03-30T00:27:03.912Z,6.60
2018-03-30T00:29:31.504Z,6.60
2018-03-30T00:31:59.095Z,6.50
2018-03-30T00:34:27.479Z,6.50
2018-03-30T00:36:55.837Z,6.50
2018-03-30T00:39:23.465Z,6.50
2018-03-30T00:41:51.065Z,6.60
2018-03-30T00:44:19.424Z,6.50
2018-03-30T00:46:47.986Z,6.50
2018-03-30T00:49:15.567Z,6.50
2018-03-30T00:51:43.199Z,6.50
2018-03-30T00:54:10.785Z,6.50
2018-03-30T00:56:38.411Z,6.50
2018-03-30T00:59:06.004Z,6.50
2018-03-30T01:01:33.634Z,6.40
2018-03-30T01:04:01.231Z,6.40
2018-03-30T01:06:28.870Z,6.40
2018-03-30T01:08:56.465Z,6.30
2018-03-30T01:11:24.851Z,6.30
2018-03-30T01:13:52.470Z,6.20
2018-03-30T01:16:20.055Z,6.30
2018-03-30T01:18:47.670Z,6.20
2018-03-30T01:21:15.272Z,6.20
2018-03-30T01:23:42.892Z,6.20
2018-03-30T01:26:10.497Z,6.20
2018-03-30T01:28:38.112Z,6.20
2018-03-30T01:31:05.711Z,6.20
2018-03-30T01:33:33.328Z,6.20
2018-03-30T01:36:00.926Z,6.10
2018-03-30T01:38:28.552Z,6.10
2018-03-30T01:40:56.140Z,6.10
2018-03-30T01:43:23.748Z,6.10
2018-03-30T01:45:51.348Z,6.10
2018-03-30T01:48:18.976Z,6.10
2018-03-30T01:50:47.338Z,6.00
2018-03-30T01:53:14.932Z,6.00
2018-03-30T01:55:42.548Z,6.00
2018-03-30T01:58:10.142Z,6.00
2018-03-30T02:00:38.548Z,5.90
2018-03-30T02:03:06.141Z,5.90
2018-03-30T02:05:33.733Z,5.90
2018-03-30T02:08:02.120Z,5.90
2018-03-30T02:10:30.476Z,5.80
2018-03-30T02:12:58.866Z,5.80
2018-03-30T02:15:27.253Z,5.80
2018-03-30T02:17:55.644Z,5.70
2018-03-30T02:20:24.004Z,5.70
2018-03-30T02:22:52.364Z,5.60
2018-03-30T02:25:21.489Z,5.60
2018-03-30T02:27:49.843Z,5.60
2018-03-30T02:30:18.233Z,5.60
2018-03-30T02:32:46.596Z,5.60
2018-03-30T02:35:14.960Z,5.50
2018-03-30T02:37:42.604Z,5.50
2018-03-30T02:40:10.198Z,5.50
2018-03-30T02:42:37.828Z,5.50
2018-03-30T02:45:05.433Z,5.50
2018-03-30T02:47:33.030Z,5.50
2018-03-30T02:50:00.656Z,5.50
2018-03-30T02:52:29.030Z,5.50
2018-03-30T02:54:56.648Z,5.40
2018-03-30T02:57:24.233Z,5.50
2018-03-30T02:59:53.371Z,5.40
2018-03-30T03:02:21.725Z,5.50
2018-03-30T03:04:49.351Z,5.40
2018-03-30T03:07:16.939Z,5.40
2018-03-30T03:09:44.533Z,5.40
2018-03-30T03:12:12.911Z,5.30
2018-03-30T03:14:41.272Z,5.30
2018-03-30T03:17:09.668Z,5.20
2018-03-30T03:19:38.038Z,5.20
2018-03-30T03:22:06.395Z,5.20
2018-03-30T03:24:34.024Z,5.10
2018-03-30T03:27:01.617Z,5.20
2018-03-30T03:29:29.987Z,5.20
2018-03-30T03:31:57.605Z,5.10
2018-03-30T03:34:25.295Z,5.20
2018-03-30T03:36:52.924Z,5.20
2018-03-30T03:39:20.508Z,5.20
2018-03-30T03:41:48.136Z,5.20
2018-03-30T03:44:15.738Z,5.30
2018-03-30T03:46:43.332Z,5.20
2018-03-30T03:49:10.961Z,5.20
2018-03-30T03:51:38.549Z,5.10
2018-03-30T03:54:06.144Z,5.10
2018-03-30T03:56:33.766Z,5.10
2018-03-30T03:59:01.363Z,5.10
2018-03-30T04:01:28.957Z,5.00
2018-03-30T04:03:56.568Z,5.00
2018-03-30T04:06:24.926Z,5.00
2018-03-30T04:08:53.316Z,5.00
2018-03-30T04:11:21.679Z,4.90
2018-03-30T04:13:50.065Z,4.90
2018-03-30T04:16:17.656Z,4.90
2018-03-30T04:18:45.271Z,4.90
2018-03-30T04:21:12.865Z,4.80
2018-03-30T04:23:41.264Z,4.80
2018-03-30T04:26:08.877Z,4.70
2018-03-30T04:28:36.477Z,4.80
2018-03-30T04:31:04.100Z,4.80
2018-03-30T04:33:31.694Z,4.80
2018-03-30T04:35:59.319Z,4.80
2018-03-30T04:38:27.671Z,4.80
2018-03-30T04:40:55.300Z,4.80
2018-03-30T04:43:22.892Z,4.80
2018-03-30T04:45:50.492Z,4.80
2018-03-30T04:48:18.884Z,4.90
2018-03-30T04:50:47.242Z,4.90
2018-03-30T04:53:14.868Z,4.80
2018-03-30T04:55:42.455Z,4.90
2018-03-30T04:58:10.041Z,4.80
2018-03-30T05:00:38.434Z,4.80
2018-03-30T05:03:06.023Z,4.70
2018-03-30T05:05:33.618Z,4.70
2018-03-30T05:08:02.008Z,4.70
2018-03-30T05:10:29.605Z,4.70
2018-03-30T05:12:57.226Z,4.70
2018-03-30T05:15:24.957Z,4.70
2018-03-30T05:17:52.543Z,4.80
2018-03-30T05:20:20.927Z,4.80
2018-03-30T05:22:49.298Z,4.80
2018-03-30T05:25:16.892Z,4.70
2018-03-30T05:27:44.532Z,4.80
2018-03-30T05:30:12.883Z,4.70
2018-03-30T05:32:40.507Z,4.70
2018-03-30T05:35:08.097Z,4.70
2018-03-30T05:37:35.723Z,4.70
2018-03-30T05:40:03.334Z,4.70
2018-03-30T05:42:30.933Z,4.80
2018-03-30T05:44:59.317Z,4.80
2018-03-30T05:47:28.342Z,4.80
2018-03-30T05:49:55.965Z,4.70
2018-03-30T05:52:24.323Z,4.80
2018-03-30T05:54:51.948Z,4.80
2018-03-30T05:57:19.538Z,4.80
2018-03-30T05:59:47.127Z,4.80
2018-03-30T06:02:15.512Z,4.90
2018-03-30T06:04:43.116Z,4.80
2018-03-30T06:07:10.708Z,4.90
2018-03-30T06:09:38.326Z,4.90
2018-03-30T06:12:05.932Z,4.90
2018-03-30T06:14:34.313Z,5.00
2018-03-30T06:17:02.696Z,5.00
2018-03-30T06:19:31.076Z,5.00
2018-03-30T06:21:59.444Z,5.00
2018-03-30T06:24:27.164Z,5.00
2018-03-30T06:26:54.768Z,5.00
2018-03-30T06:29:23.172Z,5.00
2018-03-30T06:31:50.775Z,5.00
2018-03-30T06:34:18.365Z,5.10
2018-03-30T06:36:46.012Z,5.10
2018-03-30T06:39:13.652Z,5.10
2018-03-30T06:41:41.244Z,5.20
2018-03-30T06:44:08.882Z,5.20
2018-03-30T06:46:36.479Z,5.20
2018-03-30T06:49:04.832Z,5.30
2018-03-30T06:51:32.460Z,5.20
2018-03-30T06:54:00.064Z,5.40
2018-03-30T06:56:27.660Z,5.40
2018-03-30T06:58:55.280Z,5.50
2018-03-30T07:01:22.877Z,5.50
2018-03-30T07:03:50.508Z,5.60
2018-03-30T07:06:18.869Z,5.70
2018-03-30T07:08:46.470Z,5.70
2018-03-30T07:11:14.852Z,5.80
2018-03-30T07:13:42.440Z,5.80
2018-03-30T07:16:10.078Z,5.90
2018-03-30T07:18:37.677Z,5.90
2018-03-30T07:21:05.276Z,6.00
2018-03-30T07:23:32.896Z,6.00
2018-03-30T07:26:00.496Z,6.10
2018-03-30T07:28:28.216Z,6.10
2018-03-30T07:30:55.811Z,6.20
2018-03-30T07:33:23.400Z,6.30
2018-03-30T07:35:51.032Z,6.30
2018-03-30T07:38:18.788Z,6.40
2018-03-30T07:40:46.372Z,6.40
2018-03-30T07:43:14.770Z,6.50
2018-03-30T07:45:42.509Z,6.40
2018-03-30T07:48:10.112Z,6.50
2018-03-30T07:50:37.743Z,6.60
2018-03-30T07:53:06.109Z,6.70
2018-03-30T07:55:33.695Z,6.60
2018-03-30T07:58:01.424Z,6.70
2018-03-30T08:00:29.019Z,6.70
2018-03-30T08:02:56.616Z,6.80
2018-03-30T08:05:24.236Z,6.90
2018-03-30T08:07:51.825Z,6.90
2018-03-30T08:10:19.460Z,7.00
2018-03-30T08:12:47.056Z,7.10
2018-03-30T08:15:14.645Z,7.10
2018-03-30T08:17:42.264Z,7.10
2018-03-30T08:20:09.864Z,7.20
2018-03-30T08:22:37.496Z,7.30
2018-03-30T08:25:05.156Z,7.30
2018-03-30T08:27:32.781Z,7.40
2018-03-30T08:30:01.137Z,7.50
2018-03-30T08:32:28.736Z,7.40
2018-03-30T08:34:56.638Z,7.50
2018-03-30T08:37:24.411Z,7.60
2018-03-30T08:39:52.192Z,7.60
2018-03-30T08:42:20.550Z,7.80
2018-03-30T08:44:48.131Z,7.70
2018-03-30T08:47:17.258Z,7.90
2018-03-30T08:49:44.846Z,7.90
2018-03-30T08:52:12.468Z,8.00
2018-03-30T08:54:40.829Z,8.20
2018-03-30T08:57:08.435Z,8.10
2018-03-30T08:59:36.060Z,8.20
2018-03-30T09:02:04.416Z,8.40
2018-03-30T09:04:32.004Z,8.30
2018-03-30T09:07:00.396Z,8.50
2018-03-30T09:09:28.008Z,8.50
2018-03-30T09:11:55.624Z,8.60
2018-03-30T09:14:23.562Z,8.70
2018-03-30T09:16:51.926Z,8.80
2018-03-30T09:19:19.543Z,8.70
2018-03-30T09:21:47.142Z,8.80
2018-03-30T09:24:14.724Z,8.90
2018-03-30T09:26:43.108Z,8.90
2018-03-30T09:29:11.467Z,9.00
2018-03-30T09:31:39.067Z,8.90
2018-03-30T09:34:06.756Z,9.00
2018-03-30T09:36:34.340Z,9.10
2018-03-30T09:39:01.944Z,9.20
2018-03-30T09:41:29.616Z,9.30
2018-03-30T09:43:58.007Z,9.60
2018-03-30T09:46:25.619Z,9.50
2018-03-30T09:48:54.032Z,9.70
2018-03-30T09:51:21.644Z,9.70
2018-03-30T09:53:50.008Z,9.90
2018-03-30T09:56:17.636Z,9.80
2018-03-30T09:58:45.226Z,10.00
2018-03-30T10:01:16.795Z,10.00
2018-03-30T10:03:48.260Z,10.10
2018-03-30T10:06:15.884Z,10.10
2018-03-30T10:08:43.503Z,10.20
2018-03-30T10:11:11.863Z,10.30
2018-03-30T10:13:39.499Z,10.30
2018-03-30T10:16:07.096Z,10.40
2018-03-30T10:18:35.455Z,10.60
2018-03-30T10:21:03.114Z,10.60
2018-03-30T10:23:30.712Z,10.70
2018-03-30T10:25:58.301Z,10.90
2018-03-30T10:28:26.049Z,11.00
2018-03-30T10:30:53.644Z,11.10
2018-03-30T10:33:21.265Z,11.20
2018-03-30T10:35:50.552Z,11.30
2018-03-30T10:38:18.948Z,11.60
2018-03-30T10:40:46.544Z,11.50
2018-03-30T10:43:14.139Z,11.60
2018-03-30T10:45:42.529Z,11.80
2018-03-30T10:48:10.894Z,11.90
2018-03-30T10:50:39.452Z,12.00
2018-03-30T10:53:07.215Z,12.00
2018-03-30T10:55:34.815Z,12.10
2018-03-30T10:58:03.220Z,12.20
2018-03-30T11:00:30.816Z,12.20
2018-03-30T11:02:58.417Z,12.30
2018-03-30T11:05:26.056Z,12.30
2018-03-30T11:07:53.656Z,12.40
2018-03-30T11:10:21.249Z,12.40
2018-03-30T11:12:48.874Z,12.50
2018-03-30T11:15:16.468Z,12.50
2018-03-30T11:17:44.092Z,12.50
2018-03-30T11:20:11.695Z,12.50
2018-03-30T11:22:39.287Z,12.50
2018-03-30T11:25:07.695Z,12.60
2018-03-30T11:27:35.288Z,12.50
2018-03-30T11:30:02.892Z,12.60
2018-03-30T11:32:31.296Z,12.80
2018-03-30T11:34:58.894Z,12.80
2018-03-30T11:37:26.489Z,13.00
2018-03-30T11:39:54.876Z,13.10
2018-03-30T11:42:23.232Z,13.30
2018-03-30T11:44:50.868Z,13.20
2018-03-30T11:47:18.530Z,13.30
2018-03-30T11:49:46.155Z,13.40
2018-03-30T11:52:13.845Z,13.50
2018-03-30T11:54:41.440Z,13.60
2018-03-30T11:57:09.070Z,13.60
2018-03-30T11:59:36.672Z,13.70
2018-03-30T12:02:05.031Z,13.80
2018-03-30T12:04:32.653Z,13.70
2018-03-30T12:07:00.255Z,13.90
2018-03-30T12:09:27.892Z,14.00
2018-03-30T12:11:55.488Z,14.00
2018-03-30T12:14:23.088Z,14.00
2018-03-30T12:16:50.716Z,14.10
2018-03-30T12:19:19.088Z,14.20
2018-03-30T12:21:46.689Z,14.20
2018-03-30T12:24:14.316Z,14.30
2018-03-30T12:26:42.676Z,14.40
2018-03-30T12:29:10.312Z,14.40
2018-03-30T12:31:37.908Z,14.50
2018-03-30T12:34:05.504Z,14.60
2018-03-30T12:36:33.119Z,14.60
2018-03-30T12:39:00.716Z,14.60
2018-03-30T12:41:28.572Z,14.60
2018-03-30T12:43:57.020Z,14.60
2018-03-30T12:46:24.624Z,14.50
2018-03-30T12:48:52.244Z,14.60
2018-03-30T12:51:19.859Z,14.60
2018-03-30T12:53:47.530Z,14.60
2018-03-30T12:56:15.130Z,14.60
2018-03-30T12:58:42.728Z,14.50
2018-03-30T13:01:10.361Z,14.50
2018-03-30T13:03:37.973Z,14.50
2018-03-30T13:06:05.625Z,14.40
2018-03-30T13:08:33.993Z,14.20
2018-03-30T13:11:01.600Z,14.20
2018-03-30T13:13:29.241Z,14.10
2018-03-30T13:15:56.845Z,14.00
2018-03-30T13:18:24.440Z,13.90
2018-03-30T13:20:52.074Z,13.80
2018-03-30T13:23:20.441Z,13.70
2018-03-30T13:25:49.568Z,13.70
2018-03-30T13:28:17.197Z,13.70
2018-03-30T13:30:44.828Z,13.70
2018-03-30T13:33:12.430Z,13.60
2018-03-30T13:35:40.032Z,13.60
2018-03-30T13:38:07.652Z,13.60
2018-03-30T13:40:35.295Z,13.50
2018-03-30T13:43:02.928Z,13.50
2018-03-30T13:45:30.515Z,13.50
2018-03-30T13:47:58.112Z,13.50
2018-03-30T13:50:30.020Z,13.50
2018-03-30T13:56:02.330Z,13.60
2018-03-30T13:58:40.599Z,13.60
2018-03-30T14:01:11.895Z,13.50
2018-03-30T14:04:05.167Z,13.40
2018-03-30T14:06:47.402Z,13.30
2018-03-30T14:12:14.132Z,13.20
2018-03-30T14:14:42.498Z,13.10
2018-03-30T14:17:11.592Z,13.00
2018-03-30T14:19:40.146Z,12.90
2018-03-30T14:22:08.484Z,12.90
2018-03-30T14:24:37.645Z,12.80
2018-03-30T14:27:10.957Z,12.70
2018-03-30T14:29:40.176Z,12.80
2018-03-30T14:32:07.779Z,12.70
2018-03-30T14:37:48.553Z,12.70
2018-03-30T14:40:20.367Z,12.70
2018-03-30T14:42:48.890Z,12.60
2018-03-30T14:48:15.633Z,12.60
2018-03-30T14:50:48.116Z,12.60
2018-03-30T14:53:16.632Z,12.70
2018-03-30T14:55:50.207Z,12.70
2018-03-30T15:01:31.191Z,12.80
2018-03-30T15:04:25.275Z,12.70
2018-03-30T15:06:54.420Z,12.70
2018-03-30T15:09:33.984Z,12.70
2018-03-30T15:12:17.328Z,12.80
2018-03-30T15:14:55.616Z,12.80
2018-03-30T15:17:38.234Z,12.80
2018-03-30T15:20:26.414Z,12.80
2018-03-30T15:23:17.657Z,12.80
2018-03-30T15:25:47.030Z,12.80
2018-03-30T15:28:15.572Z,12.80
2018-03-30T15:33:42.820Z,12.70
2018-03-30T15:36:42.128Z,12.70
2018-03-30T15:39:09.720Z,12.70
2018-03-30T15:41:38.115Z,12.70
2018-03-30T15:44:05.720Z,12.70
2018-03-30T15:46:36.128Z,12.80
2018-03-30T15:49:03.748Z,12.80
2018-03-30T15:51:33.024Z,12.80
2018-03-30T15:54:00.176Z,12.80
2018-03-30T15:56:27.777Z,12.90
2018-03-30T15:58:55.670Z,12.80
2018-03-30T16:01:23.392Z,12.80
2018-03-30T16:03:51.911Z,12.80
2018-03-30T16:06:19.722Z,12.80
2018-03-30T16:08:48.106Z,12.70
2018-03-30T16:11:18.183Z,12.80
2018-03-30T16:13:45.780Z,12.70
2018-03-30T16:16:13.408Z,12.70
2018-03-30T16:18:52.976Z,12.70
2018-03-30T16:21:20.121Z,12.70
2018-03-30T16:23:47.992Z,12.70
2018-03-30T16:26:15.108Z,12.70
2018-03-30T16:28:42.240Z,12.70
2018-03-30T16:31:09.337Z,12.70
2018-03-30T16:33:36.464Z,12.70
2018-03-30T16:36:03.564Z,12.60
2018-03-30T16:38:31.460Z,12.60
2018-03-30T16:40:58.576Z,12.50
2018-03-30T16:43:26.440Z,12.60
2018-03-30T16:45:54.346Z,12.60
2018-03-30T16:48:21.461Z,12.50
2018-03-30T16:50:49.353Z,12.40
2018-03-30T16:53:16.500Z,12.40
2018-03-30T16:55:43.594Z,12.40
2018-03-30T16:58:10.733Z,12.40
2018-03-30T17:00:37.833Z,12.40
2018-03-30T17:03:04.960Z,12.40
2018-03-30T17:05:32.088Z,12.30
2018-03-30T17:07:59.189Z,12.30
2018-03-30T17:10:26.321Z,12.30
2018-03-30T17:12:54.179Z,12.30
2018-03-30T17:15:22.122Z,12.30
2018-03-30T17:17:49.256Z,12.30
2018-03-30T17:20:16.364Z,12.30
2018-03-30T17:22:43.496Z,12.30
2018-03-30T17:25:11.364Z,12.20
2018-03-30T17:27:39.227Z,12.10
2018-03-30T17:30:07.125Z,12.10
2018-03-30T17:32:34.223Z,12.10
2018-03-30T17:35:01.368Z,12.10
2018-03-30T17:37:28.487Z,12.10
2018-03-30T17:39:55.580Z,12.10
2018-03-30T17:42:22.720Z,12.10
2018-03-30T17:44:49.816Z,12.00
2018-03-30T17:47:16.916Z,12.00
2018-03-30T17:49:44.047Z,12.00
2018-03-30T17:52:11.155Z,11.90
2018-03-30T17:54:41.098Z,11.70
2018-03-30T17:57:11.328Z,11.70
2018-03-30T17:59:38.785Z,11.60
2018-03-30T18:02:08.064Z,11.60
2018-03-30T18:04:37.273Z,11.60
2018-03-30T18:07:06.167Z,11.40
2018-03-30T18:09:35.830Z,11.40
2018-03-30T18:12:05.093Z,11.30
2018-03-30T18:14:34.063Z,11.30
2018-03-30T18:17:04.198Z,11.10
2018-03-30T18:19:31.471Z,11.00
2018-03-30T18:21:58.568Z,11.00
2018-03-30T18:24:25.695Z,10.90
2018-03-30T18:26:53.602Z,10.80
2018-03-30T18:29:20.724Z,10.70
2018-03-30T18:31:47.858Z,10.70
2018-03-30T18:34:15.746Z,10.60
2018-03-30T18:36:42.849Z,10.50
2018-03-30T18:39:09.983Z,10.60
2018-03-30T18:41:37.086Z,10.50
2018-03-30T18:44:06.036Z,10.40
2018-03-30T18:46:33.902Z,10.40
2018-03-30T18:49:01.248Z,10.40
2018-03-30T18:51:28.535Z,10.30
2018-03-30T18:53:55.760Z,10.30
2018-03-30T18:56:23.120Z,10.30
2018-03-30T18:58:50.474Z,10.30
2018-03-30T19:01:17.830Z,10.30
2018-03-30T19:03:45.109Z,10.30
2018-03-30T19:06:13.139Z,10.20
2018-03-30T19:08:40.402Z,10.10
2018-03-30T19:11:07.756Z,10.20
2018-03-30T19:13:35.146Z,10.10
2018-03-30T19:16:03.052Z,10.10
2018-03-30T19:18:30.156Z,10.00
2018-03-30T19:20:58.034Z,10.10
2018-03-30T19:23:25.933Z,10.10
2018-03-30T19:25:53.033Z,10.00
2018-03-30T19:28:20.133Z,10.10
2018-03-30T19:30:47.519Z,10.10
2018-03-30T19:33:14.801Z,10.20
2018-03-30T19:35:42.844Z,10.20
2018-03-30T19:38:11.919Z,10.20
2018-03-30T19:40:41.831Z,10.20
2018-03-30T19:43:09.158Z,10.10
2018-03-30T19:45:36.558Z,10.20
2018-03-30T19:48:03.925Z,10.20
2018-03-30T19:50:31.845Z,10.10
2018-03-30T19:52:59.144Z,10.00
2018-03-30T19:55:26.498Z,10.00
2018-03-30T19:57:55.620Z,9.90
2018-03-30T20:00:23.055Z,9.80
2018-03-30T20:02:52.255Z,9.70
2018-03-30T20:05:21.526Z,9.60
2018-03-30T20:07:51.517Z,9.60
2018-03-30T20:10:20.445Z,9.50
2018-03-30T20:12:47.908Z,9.60
2018-03-30T20:15:15.157Z,9.50
2018-03-30T20:17:42.516Z,9.50
2018-03-30T20:20:09.878Z,9.40
2018-03-30T20:22:38.619Z,9.40
2018-03-30T20:25:06.122Z,9.40
2018-03-30T20:27:33.290Z,9.40
2018-03-30T20:30:00.396Z,9.40
2018-03-30T20:32:27.652Z,9.30
2018-03-30T20:34:55.669Z,9.30
2018-03-30T20:37:25.199Z,9.30
2018-03-30T20:39:52.696Z,9.30
2018-03-30T20:42:20.265Z,9.30
2018-03-30T20:44:48.268Z,9.30
2018-03-30T20:47:17.532Z,9.30
2018-03-30T20:49:45.896Z,9.20
2018-03-30T20:52:13.132Z,9.20
2018-03-30T20:54:40.230Z,9.10
2018-03-30T20:57:07.362Z,9.00
2018-03-30T20:59:34.459Z,9.00
2018-03-30T21:02:01.913Z,9.00
2018-03-30T21:04:29.018Z,9.00
2018-03-30T21:06:56.117Z,9.00
2018-03-30T21:09:23.256Z,9.00
2018-03-30T21:11:51.116Z,8.90
2018-03-30T21:14:19.037Z,9.00
2018-03-30T21:16:46.131Z,8.90
2018-03-30T21:19:14.033Z,9.00
2018-03-30T21:21:41.127Z,9.00
2018-03-30T21:24:08.221Z,9.10
2018-03-30T21:26:35.350Z,9.00
2018-03-30T21:29:03.215Z,9.00
2018-03-30T21:31:31.071Z,8.90
2018-03-30T21:33:59.200Z,8.90
2018-03-30T21:36:26.878Z,8.80
2018-03-30T21:38:54.219Z,8.80
2018-03-30T21:41:23.206Z,8.80
2018-03-30T21:43:51.957Z,8.90
2018-03-30T21:46:21.222Z,8.90
2018-03-30T21:48:50.262Z,9.00
2018-03-30T21:51:17.512Z,9.10
2018-03-30T21:53:44.635Z,9.10
2018-03-30T21:56:12.084Z,9.10
2018-03-30T21:58:39.426Z,9.00
2018-03-30T22:01:06.563Z,9.00
2018-03-30T22:03:33.671Z,9.00
2018-03-30T22:08:32.072Z,9.00
2018-03-30T22:10:59.176Z,8.90
2018-03-30T22:13:26.280Z,8.90
2018-03-30T22:15:53.411Z,8.90
2018-03-30T22:18:21.276Z,8.80
2018-03-30T22:20:49.441Z,8.70
2018-03-30T22:23:17.585Z,8.70
2018-03-30T22:25:44.840Z,8.60
2018-03-30T22:28:13.010Z,8.70
2018-03-30T22:30:40.358Z,8.70
2018-03-30T22:33:07.747Z,8.70
2018-03-30T22:35:35.885Z,8.70
2018-03-30T22:38:03.242Z,8.70
2018-03-30T22:40:30.614Z,8.70
2018-03-30T22:42:57.894Z,8.70
2018-03-30T22:45:25.205Z,8.60
2018-03-30T22:47:52.556Z,8.60
2018-03-30T22:50:19.861Z,8.50
2018-03-30T22:52:47.179Z,8.50
2018-03-30T22:55:14.522Z,8.50
2018-03-30T22:57:41.874Z,8.40
2018-03-30T23:00:09.236Z,8.40
2018-03-30T23:02:36.593Z,8.40
2018-03-30T23:05:03.944Z,8.40
2018-03-30T23:07:31.333Z,8.50
2018-03-30T23:09:58.675Z,8.50
2018-03-30T23:12:26.002Z,8.50
2018-03-30T23:14:53.362Z,8.50
2018-03-30T23:17:20.714Z,8.50
2018-03-30T23:19:48.068Z,8.50
2018-03-30T23:22:15.427Z,8.50
2018-03-30T23:24:42.789Z,8.40
2018-03-30T23:27:10.133Z,8.30
2018-03-30T23:29:37.492Z,8.30
2018-03-30T23:32:04.844Z,8.30
2018-03-30T23:34:32.200Z,8.30
2018-03-30T23:36:59.553Z,8.30
2018-03-30T23:39:26.907Z,8.30
2018-03-30T23:41:54.264Z,8.30
2018-03-30T23:44:21.615Z,8.30
2018-03-30T23:46:48.968Z,8.30
2018-03-30T23:49:16.221Z,8.30
2018-03-30T23:51:43.582Z,8.40
2018-03-30T23:54:10.835Z,8.40
2018-03-30T23:56:38.112Z,8.40
2018-03-30T23:59:06.254Z,8.40
